Time;durP1;ratioP1;P1;durP2;ratioP2;P2;SDS_P1;SDS_P2;PMS_P1;PMS_P2;Temp;Humidity;BMP_temperature;BMP_pressure;BME280_temperature;BME280_humidity;BME280_pressure;Samples;Min_cycle;Max_cycle;Signal;HPM_P1;HPM_P2
2021/05/15 00:02:17;;;;;;;2.42;0.73;;;14.70;82.10;;;;;;5112629;28;20036;-68
2021/05/15 00:04:43;;;;;;;1.13;0.32;;;14.70;82.70;;;;;;5112399;28;20511;-68
2021/05/15 00:07:08;;;;;;;1.17;0.40;;;14.70;82.70;;;;;;5112970;28;20026;-67
2021/05/15 00:09:34;;;;;;;1.15;0.40;;;14.70;82.70;;;;;;5116033;28;20027;-69
2021/05/15 00:12:00;;;;;;;1.40;0.60;;;14.70;82.70;;;;;;5114846;28;20027;-69
2021/05/15 00:14:26;;;;;;;2.72;0.45;;;14.70;82.60;;;;;;5116867;28;20098;-69
2021/05/15 00:16:52;;;;;;;4.38;0.52;;;14.70;82.60;;;;;;5115184;28;20038;-75
2021/05/15 00:19:18;;;;;;;1.63;0.50;;;14.70;82.40;;;;;;5114026;28;20031;-74
2021/05/15 00:21:44;;;;;;;1.42;0.52;;;14.60;82.30;;;;;;5115012;28;20031;-70
2021/05/15 00:24:10;;;;;;;2.35;0.50;;;14.60;82.10;;;;;;5114360;28;20479;-73
2021/05/15 00:26:36;;;;;;;3.15;0.50;;;14.60;82.20;;;;;;5113863;28;20027;-75
2021/05/15 00:29:02;;;;;;;1.02;0.40;;;14.60;82.00;;;;;;5113947;28;20081;-72
2021/05/15 00:31:27;;;;;;;4.20;0.52;;;14.60;81.50;;;;;;5114355;28;20065;-75
2021/05/15 00:33:53;;;;;;;1.02;0.52;;;14.60;81.80;;;;;;5114249;28;20029;-74
2021/05/15 00:36:19;;;;;;;1.27;0.50;;;14.60;82.00;;;;;;5114655;28;20511;-74
2021/05/15 00:38:44;;;;;;;2.50;0.70;;;14.60;81.80;;;;;;5113778;28;20019;-72
2021/05/15 00:41:11;;;;;;;4.68;0.70;;;14.60;81.90;;;;;;5114027;28;20433;-73
2021/05/15 00:43:44;;;;;;;5.35;0.70;;;14.60;82.00;;;;;;5114121;28;20046;-74
2021/05/15 00:46:10;;;;;;;2.05;0.60;;;14.60;82.20;;;;;;5113431;28;20423;-74
2021/05/15 00:48:35;;;;;;;1.27;0.55;;;14.50;82.60;;;;;;5113660;28;20023;-74
2021/05/15 00:51:02;;;;;;;3.47;0.70;;;14.50;82.20;;;;;;5113907;28;20377;-74
2021/05/15 00:53:28;;;;;;;1.40;0.50;;;14.50;82.20;;;;;;5113977;28;20488;-70
2021/05/15 00:55:55;;;;;;;0.93;0.43;;;14.50;82.30;;;;;;5113917;28;20020;-73
2021/05/15 00:58:22;;;;;;;4.45;0.80;;;14.50;82.30;;;;;;5111611;28;20164;-72
2021/05/15 01:00:47;;;;;;;4.03;0.70;;;14.50;82.40;;;;;;5110704;28;20508;-74
2021/05/15 01:03:13;;;;;;;0.90;0.40;;;14.50;82.90;;;;;;5111303;28;20173;-72
2021/05/15 01:05:39;;;;;;;1.33;0.32;;;14.50;82.90;;;;;;5112610;28;20507;-75
2021/05/15 01:08:05;;;;;;;1.70;0.50;;;14.50;83.00;;;;;;5113201;28;20031;-73
2021/05/15 01:10:31;;;;;;;1.73;0.55;;;14.50;83.00;;;;;;5113386;28;20103;-74
2021/05/15 01:12:57;;;;;;;1.60;0.60;;;14.50;82.90;;;;;;5113369;28;20043;-72
2021/05/15 01:15:26;;;;;;;4.13;0.70;;;14.50;82.60;;;;;;5113275;28;20095;-74
2021/05/15 01:17:57;;;;;;;2.60;0.70;;;14.50;83.00;;;;;;5112624;28;20106;-75
2021/05/15 01:20:25;;;;;;;2.75;0.70;;;14.50;82.90;;;;;;5112071;28;20094;-74
2021/05/15 01:22:51;;;;;;;2.75;0.65;;;14.40;82.90;;;;;;5113193;28;20085;-73
2021/05/15 01:25:18;;;;;;;1.63;0.73;;;14.40;83.10;;;;;;5113400;28;20023;-74
2021/05/15 01:27:44;;;;;;;3.05;0.60;;;14.40;83.00;;;;;;5113311;28;20245;-72
2021/05/15 01:30:11;;;;;;;2.78;1.15;;;14.40;83.00;;;;;;5112894;28;20476;-71
2021/05/15 01:32:39;;;;;;;3.58;1.10;;;14.40;83.30;;;;;;5112791;28;20023;-75
2021/05/15 01:35:07;;;;;;;5.47;1.20;;;14.40;83.40;;;;;;5112545;28;20497;-73
2021/05/15 01:37:33;;;;;;;3.08;1.30;;;14.40;83.20;;;;;;5113198;28;20059;-75
2021/05/15 01:39:59;;;;;;;4.88;1.50;;;14.40;83.10;;;;;;5112333;28;20042;-68
2021/05/15 01:42:24;;;;;;;1.80;1.30;;;14.50;83.10;;;;;;5112890;28;20536;-72
2021/05/15 01:44:50;;;;;;;4.30;1.50;;;14.40;82.80;;;;;;5112348;28;20044;-74
2021/05/15 01:47:16;;;;;;;3.00;1.25;;;14.50;83.20;;;;;;5112839;28;20047;-75
2021/05/15 01:49:41;;;;;;;5.00;1.40;;;14.40;83.30;;;;;;5112582;28;20464;-76
2021/05/15 01:52:07;;;;;;;4.75;1.63;;;14.40;83.20;;;;;;5111963;28;20028;-69
2021/05/15 01:54:33;;;;;;;4.25;1.55;;;14.40;83.40;;;;;;5112885;28;20020;-72
2021/05/15 01:56:59;;;;;;;2.97;1.80;;;14.40;83.60;;;;;;5112764;28;20053;-74
2021/05/15 01:59:25;;;;;;;7.35;2.30;;;14.40;83.90;;;;;;5112089;28;20106;-72
2021/05/15 02:01:51;;;;;;;10.15;2.40;;;14.40;84.30;;;;;;5112081;27;20063;-71
2021/05/15 02:04:16;;;;;;;3.85;2.22;;;14.40;84.30;;;;;;5111906;28;20068;-71
2021/05/15 02:06:42;;;;;;;4.10;2.22;;;14.40;84.20;;;;;;5112209;28;20020;-75
2021/05/15 02:09:07;;;;;;;5.35;2.53;;;14.50;84.10;;;;;;5112505;28;20036;-73
2021/05/15 02:11:34;;;;;;;4.30;2.63;;;14.40;84.10;;;;;;5112470;28;20020;-72
2021/05/15 02:14:00;;;;;;;4.80;2.97;;;14.40;84.20;;;;;;5112000;28;20027;-73
2021/05/15 02:16:26;;;;;;;6.57;3.40;;;14.40;84.40;;;;;;5112066;28;20104;-75
2021/05/15 02:18:52;;;;;;;3.60;2.60;;;14.40;84.60;;;;;;5112147;28;20103;-72
2021/05/15 02:21:17;;;;;;;6.10;3.13;;;14.40;84.50;;;;;;5111937;28;20031;-70
2021/05/15 02:23:43;;;;;;;5.90;3.30;;;14.40;84.60;;;;;;5112067;28;20107;-73
2021/05/15 02:26:09;;;;;;;5.53;3.10;;;14.40;84.50;;;;;;5112215;28;20027;-72
2021/05/15 02:28:35;;;;;;;5.20;2.75;;;14.40;84.30;;;;;;5111568;28;20094;-74
2021/05/15 02:31:01;;;;;;;8.30;2.72;;;14.40;84.20;;;;;;5111501;28;20180;-72
2021/05/15 02:33:27;;;;;;;4.25;2.42;;;14.40;84.60;;;;;;5111724;28;20545;-72
2021/05/15 02:35:52;;;;;;;5.90;2.50;;;14.40;84.20;;;;;;5111588;28;20372;-73
2021/05/15 02:38:20;;;;;;;9.05;2.75;;;14.40;84.40;;;;;;5111325;28;20065;-75
2021/05/15 02:40:47;;;;;;;4.55;2.40;;;14.40;84.30;;;;;;5111992;28;20027;-74
2021/05/15 02:43:16;;;;;;;5.53;2.60;;;14.40;84.20;;;;;;5111505;28;20040;-72
2021/05/15 02:45:42;;;;;;;8.82;2.45;;;14.40;84.10;;;;;;5111489;28;20106;-74
2021/05/15 02:48:08;;;;;;;5.45;2.40;;;14.40;84.50;;;;;;5109421;28;20035;-71
2021/05/15 02:50:34;;;;;;;4.95;2.20;;;14.40;84.50;;;;;;5111580;28;20386;-69
2021/05/15 02:53:01;;;;;;;6.68;2.45;;;14.40;84.60;;;;;;5111423;27;20046;-70
2021/05/15 02:55:27;;;;;;;4.50;2.40;;;14.30;84.70;;;;;;5111041;28;20020;-67
2021/05/15 02:57:54;;;;;;;6.70;2.40;;;14.30;84.60;;;;;;5113311;28;20032;-68
2021/05/15 03:00:23;;;;;;;5.60;2.58;;;14.30;84.80;;;;;;5112677;28;20043;-68
2021/05/15 03:02:49;;;;;;;5.50;2.08;;;14.30;85.10;;;;;;5113269;28;20043;-69
2021/05/15 03:05:18;;;;;;;3.75;2.00;;;14.30;85.10;;;;;;5112927;28;20035;-68
2021/05/15 03:07:44;;;;;;;3.15;1.90;;;14.30;84.90;;;;;;5112921;28;20035;-70
2021/05/15 03:10:11;;;;;;;3.08;1.50;;;14.30;85.00;;;;;;5113606;28;20020;-68
2021/05/15 03:12:37;;;;;;;12.80;1.40;;;14.30;85.00;;;;;;5113780;28;20581;-68
2021/05/15 03:15:06;;;;;;;3.90;1.50;;;14.20;84.70;;;;;;5113519;28;20024;-68
2021/05/15 03:17:32;;;;;;;5.97;1.50;;;14.20;84.40;;;;;;5112591;28;20136;-68
2021/05/15 03:19:58;;;;;;;1.92;1.17;;;14.20;84.40;;;;;;5113697;27;20019;-68
2021/05/15 03:22:23;;;;;;;5.53;1.20;;;14.20;84.60;;;;;;5113195;28;20035;-68
2021/05/15 03:24:49;;;;;;;5.32;1.05;;;14.20;84.60;;;;;;5111743;28;20035;-68
2021/05/15 03:27:15;;;;;;;5.57;1.30;;;14.20;84.50;;;;;;5113559;28;20030;-68
2021/05/15 03:29:42;;;;;;;3.05;1.10;;;14.20;84.50;;;;;;5111621;28;20034;-74
2021/05/15 03:32:08;;;;;;;4.05;1.30;;;14.20;84.60;;;;;;5111613;28;20012;-73
2021/05/15 03:34:34;;;;;;;4.25;1.02;;;14.20;84.60;;;;;;5111758;28;20081;-71
2021/05/15 03:37:00;;;;;;;3.08;1.15;;;14.20;84.50;;;;;;5111435;28;20028;-69
2021/05/15 03:39:26;;;;;;;1.60;1.13;;;14.20;84.50;;;;;;5111336;28;20024;-68
2021/05/15 03:41:51;;;;;;;2.40;1.52;;;14.20;84.50;;;;;;5113469;28;20019;-68
2021/05/15 03:44:17;;;;;;;1.52;0.90;;;14.10;84.80;;;;;;5116700;28;20544;-74
2021/05/15 03:46:43;;;;;;;2.83;1.20;;;14.20;85.00;;;;;;5115955;28;20016;-74
2021/05/15 03:49:08;;;;;;;2.97;1.30;;;14.10;85.20;;;;;;5115603;28;20450;-75
2021/05/15 03:51:35;;;;;;;2.00;1.20;;;14.10;85.50;;;;;;5115663;28;20091;-74
2021/05/15 03:54:01;;;;;;;6.57;1.15;;;14.10;85.30;;;;;;5115585;27;20020;-69
2021/05/15 03:56:27;;;;;;;3.10;1.30;;;14.20;85.20;;;;;;5116952;28;20028;-69
2021/05/15 03:58:53;;;;;;;4.65;1.60;;;14.10;85.10;;;;;;5117073;28;20019;-68
2021/05/15 04:01:20;;;;;;;4.47;1.02;;;14.10;85.40;;;;;;5117306;28;20048;-68
2021/05/15 04:03:46;;;;;;;1.92;1.10;;;14.10;85.40;;;;;;5117173;28;20089;-70
2021/05/15 04:06:12;;;;;;;1.63;1.05;;;14.10;85.40;;;;;;5115822;28;20051;-72
2021/05/15 04:08:38;;;;;;;3.55;1.70;;;14.10;85.30;;;;;;5116686;28;20034;-68
2021/05/15 04:11:03;;;;;;;2.40;1.40;;;14.10;85.50;;;;;;5115744;28;20420;-73
2021/05/15 04:16:01;;;;;;;5.72;1.40;;;14.10;85.40;;;;;;5115940;28;20040;-71
2021/05/15 04:18:28;;;;;;;4.18;1.85;;;14.20;85.30;;;;;;5114944;28;20028;-74
2021/05/15 04:20:55;;;;;;;2.40;1.38;;;14.20;85.60;;;;;;5114738;28;20049;-76
2021/05/15 04:23:21;;;;;;;2.97;1.48;;;14.10;85.70;;;;;;5114800;28;20035;-72
2021/05/15 04:25:47;;;;;;;4.20;1.83;;;14.10;85.60;;;;;;5115061;27;20019;-75
2021/05/15 04:28:13;;;;;;;3.83;1.80;;;14.20;85.70;;;;;;5114794;28;20058;-73
2021/05/15 04:30:39;;;;;;;4.97;1.70;;;14.20;85.70;;;;;;5115085;28;20081;-74
2021/05/15 04:33:05;;;;;;;3.95;2.15;;;14.10;85.60;;;;;;5115036;28;20030;-72
2021/05/15 04:35:32;;;;;;;4.18;2.13;;;14.20;85.40;;;;;;5114627;27;20028;-74
2021/05/15 04:38:03;;;;;;;3.95;1.73;;;14.20;85.80;;;;;;5114459;28;20023;-73
2021/05/15 04:40:29;;;;;;;4.47;1.85;;;14.20;86.20;;;;;;5114682;28;20028;-75
2021/05/15 04:42:59;;;;;;;6.10;1.80;;;14.20;86.00;;;;;;5114639;28;20053;-69
2021/05/15 04:45:27;;;;;;;5.53;1.63;;;14.20;86.00;;;;;;5114385;28;20019;-75
2021/05/15 04:47:53;;;;;;;6.40;1.77;;;14.30;85.90;;;;;;5114667;28;20020;-74
2021/05/15 04:50:19;;;;;;;6.10;1.60;;;14.20;85.70;;;;;;5114559;28;20086;-76
2021/05/15 04:52:45;;;;;;;3.17;1.63;;;14.20;85.90;;;;;;5114301;28;20022;-73
2021/05/15 04:55:11;;;;;;;3.95;1.55;;;14.20;85.70;;;;;;5115143;28;20098;-71
2021/05/15 04:57:36;;;;;;;3.03;1.60;;;14.20;85.80;;;;;;5114432;28;20020;-74
2021/05/15 05:00:04;;;;;;;4.57;1.60;;;14.30;85.70;;;;;;5114390;28;20051;-72
2021/05/15 05:02:30;;;;;;;11.55;2.30;;;14.30;85.70;;;;;;5114502;28;20022;-74
2021/05/15 05:04:56;;;;;;;4.80;1.70;;;14.20;86.00;;;;;;5114523;28;20032;-75
2021/05/15 05:07:21;;;;;;;2.65;1.48;;;14.30;86.30;;;;;;5114644;28;20108;-75
2021/05/15 05:09:47;;;;;;;4.55;1.80;;;14.30;86.70;;;;;;5114191;28;20107;-76
2021/05/15 05:12:13;;;;;;;4.80;1.92;;;14.30;86.70;;;;;;5114864;28;20467;-69
2021/05/15 05:14:38;;;;;;;2.88;1.65;;;14.30;86.50;;;;;;5115003;28;20019;-73
2021/05/15 05:17:07;;;;;;;4.90;2.00;;;14.30;86.50;;;;;;5114585;28;20023;-70
2021/05/15 05:19:33;;;;;;;5.60;2.15;;;14.30;86.40;;;;;;5115219;28;20032;-72
2021/05/15 05:22:02;;;;;;;5.72;2.15;;;14.30;86.30;;;;;;5115738;28;20026;-73
2021/05/15 05:24:31;;;;;;;5.35;1.92;;;14.30;86.50;;;;;;5114923;28;20049;-72
2021/05/15 05:26:58;;;;;;;3.83;2.10;;;14.30;86.70;;;;;;5114667;28;20095;-76
2021/05/15 05:29:24;;;;;;;5.13;1.75;;;14.40;86.90;;;;;;5113792;28;20050;-73
2021/05/15 05:31:51;;;;;;;5.18;1.88;;;14.40;86.70;;;;;;5114259;28;20476;-72
2021/05/15 05:34:18;;;;;;;5.20;1.83;;;14.40;86.50;;;;;;5114778;28;20034;-74
2021/05/15 05:36:44;;;;;;;2.53;1.70;;;14.40;86.60;;;;;;5114020;28;20054;-75
2021/05/15 05:39:12;;;;;;;3.08;1.50;;;14.40;86.50;;;;;;5114278;28;20056;-74
2021/05/15 05:41:38;;;;;;;5.63;1.90;;;14.50;86.40;;;;;;5114034;28;20027;-75
2021/05/15 05:44:05;;;;;;;7.25;2.00;;;14.50;86.20;;;;;;5114574;28;20032;-72
2021/05/15 05:46:31;;;;;;;5.90;1.85;;;14.50;86.00;;;;;;5113616;28;20043;-69
2021/05/15 05:48:56;;;;;;;4.47;2.10;;;14.50;85.40;;;;;;5113979;28;20027;-68
2021/05/15 05:51:22;;;;;;;4.88;1.90;;;14.50;85.80;;;;;;5114470;28;20030;-68
2021/05/15 05:53:49;;;;;;;7.80;1.90;;;14.50;85.70;;;;;;5114079;28;20035;-69
2021/05/15 05:56:14;;;;;;;4.25;1.92;;;14.60;85.60;;;;;;5114885;28;20023;-69
2021/05/15 05:58:43;;;;;;;5.90;2.17;;;14.60;85.40;;;;;;5114996;28;20076;-68
2021/05/15 06:01:08;;;;;;;4.15;2.00;;;14.60;85.20;;;;;;5114079;27;20071;-68
2021/05/15 06:03:34;;;;;;;8.07;2.53;;;14.60;85.50;;;;;;5114404;28;20109;-68
2021/05/15 06:06:00;;;;;;;7.63;2.08;;;14.60;85.80;;;;;;5114241;28;20433;-68
2021/05/15 06:08:25;;;;;;;7.47;2.40;;;14.60;85.90;;;;;;5115090;28;20093;-69
2021/05/15 06:10:51;;;;;;;8.38;2.50;;;14.60;86.00;;;;;;5115038;28;20032;-69
2021/05/15 06:13:18;;;;;;;4.82;2.38;;;14.70;85.90;;;;;;5113735;28;20085;-69
2021/05/15 06:15:44;;;;;;;5.05;2.40;;;14.70;85.80;;;;;;5113462;28;20019;-69
2021/05/15 06:18:10;;;;;;;8.00;2.40;;;14.70;85.70;;;;;;5112190;28;20126;-68
2021/05/15 06:20:36;;;;;;;13.20;2.30;;;14.80;85.50;;;;;;5114134;28;20103;-68
2021/05/15 06:23:02;;;;;;;10.05;2.20;;;14.80;85.40;;;;;;5114080;28;20086;-69
2021/05/15 06:25:28;;;;;;;4.85;1.90;;;14.80;85.00;;;;;;5112868;28;20023;-66
2021/05/15 06:27:54;;;;;;;4.95;1.90;;;14.80;84.80;;;;;;5113275;28;20479;-68
2021/05/15 06:30:20;;;;;;;4.90;1.90;;;14.80;84.50;;;;;;5113510;28;20028;-68
2021/05/15 06:32:46;;;;;;;2.92;1.42;;;14.90;85.00;;;;;;5113285;28;20066;-67
2021/05/15 06:35:12;;;;;;;3.13;1.65;;;14.90;84.40;;;;;;5113482;28;20015;-68
2021/05/15 06:37:38;;;;;;;5.15;1.85;;;15.00;84.30;;;;;;5114220;28;20080;-71
2021/05/15 06:40:07;;;;;;;5.28;1.90;;;15.00;84.30;;;;;;5113552;28;20468;-68
2021/05/15 06:42:33;;;;;;;6.25;1.90;;;15.00;84.20;;;;;;5101833;28;20024;-71
2021/05/15 06:44:59;;;;;;;4.90;2.47;;;15.10;84.40;;;;;;5072702;28;20032;-69
2021/05/15 06:47:25;;;;;;;6.88;2.42;;;15.10;84.40;;;;;;5073162;28;20479;-67
2021/05/15 06:49:50;;;;;;;5.78;2.50;;;15.10;84.40;;;;;;5072729;28;20021;-67
2021/05/15 06:52:17;;;;;;;4.95;2.55;;;15.10;84.30;;;;;;5072644;28;20028;-68
2021/05/15 06:54:44;;;;;;;5.40;2.30;;;15.30;84.30;;;;;;5073279;28;20111;-68
2021/05/15 06:57:10;;;;;;;6.35;2.10;;;15.30;84.60;;;;;;5073198;28;20035;-67
2021/05/15 06:59:36;;;;;;;6.15;1.80;;;15.30;84.50;;;;;;5072946;28;20025;-69
2021/05/15 07:02:02;;;;;;;4.68;1.60;;;15.40;84.30;;;;;;5072893;28;20388;-67
2021/05/15 07:04:28;;;;;;;5.38;2.13;;;15.40;84.00;;;;;;5073088;28;20086;-69
2021/05/15 07:06:55;;;;;;;3.45;2.00;;;15.40;83.70;;;;;;5072584;28;20031;-68
2021/05/15 07:09:21;;;;;;;6.53;2.33;;;15.40;83.00;;;;;;5071487;28;20473;-70
2021/05/15 07:11:48;;;;;;;5.38;2.20;;;15.40;82.50;;;;;;5071845;28;20025;-73
2021/05/15 07:14:14;;;;;;;11.25;2.50;;;15.50;82.50;;;;;;5072499;28;20013;-68
2021/05/15 07:16:40;;;;;;;2.70;1.60;;;15.60;82.80;;;;;;5071215;28;20074;-68
2021/05/15 07:19:06;;;;;;;5.53;1.52;;;15.60;82.50;;;;;;5073055;28;20025;-65
2021/05/15 07:21:31;;;;;;;4.95;1.30;;;15.70;82.50;;;;;;5072970;28;20078;-65
2021/05/15 07:23:57;;;;;;;4.18;1.10;;;15.70;81.80;;;;;;5073111;28;20120;-66
2021/05/15 07:26:23;;;;;;;10.30;1.00;;;15.70;81.60;;;;;;5072953;28;20020;-66
2021/05/15 07:28:49;;;;;;;3.17;0.98;;;15.80;81.90;;;;;;5072787;28;20096;-67
2021/05/15 07:31:14;;;;;;;3.28;1.13;;;15.90;81.40;;;;;;5072828;28;20437;-67
2021/05/15 07:33:40;;;;;;;5.03;0.95;;;15.90;81.50;;;;;;5072944;28;20389;-67
2021/05/15 07:36:06;;;;;;;4.70;1.10;;;15.90;81.40;;;;;;5073129;28;20492;-67
2021/05/15 07:38:33;;;;;;;4.90;1.00;;;16.00;80.90;;;;;;5072833;28;20097;-67
2021/05/15 07:40:59;;;;;;;6.18;1.10;;;16.00;80.30;;;;;;5072881;28;20028;-67
2021/05/15 07:43:26;;;;;;;4.53;1.15;;;16.10;80.20;;;;;;5072483;28;20485;-66
2021/05/15 07:45:57;;;;;;;3.28;1.27;;;16.10;80.00;;;;;;5072663;28;20127;-66
2021/05/15 07:48:37;;;;;;;7.50;1.35;;;16.10;80.00;;;;;;5073071;28;20021;-66
2021/05/15 07:51:04;;;;;;;4.55;1.92;;;16.20;80.30;;;;;;5072872;28;20477;-66
2021/05/15 07:53:30;;;;;;;5.05;1.27;;;16.20;79.50;;;;;;5072800;28;20028;-67
2021/05/15 07:55:56;;;;;;;4.57;1.13;;;16.20;79.00;;;;;;5072602;28;20027;-67
2021/05/15 07:58:21;;;;;;;5.35;0.95;;;16.20;78.70;;;;;;5072311;28;20029;-67
2021/05/15 08:00:47;;;;;;;5.20;1.77;;;16.30;78.50;;;;;;5072633;28;20512;-69
2021/05/15 08:03:13;;;;;;;5.43;1.50;;;16.30;79.00;;;;;;5072807;28;20036;-66
2021/05/15 08:05:38;;;;;;;7.65;1.40;;;16.30;79.80;;;;;;5072465;28;20051;-66
2021/05/15 08:08:05;;;;;;;7.80;1.45;;;16.40;80.30;;;;;;5072648;28;20086;-69
2021/05/15 08:10:32;;;;;;;4.28;1.00;;;16.40;80.40;;;;;;5072641;28;20021;-67
2021/05/15 08:12:59;;;;;;;8.43;1.10;;;16.50;79.80;;;;;;5071861;28;20339;-67
2021/05/15 08:15:26;;;;;;;6.95;1.30;;;16.50;79.50;;;;;;5071401;28;20044;-68
2021/05/15 08:17:53;;;;;;;4.78;1.35;;;16.50;79.80;;;;;;5071274;28;20025;-68
2021/05/15 08:20:19;;;;;;;4.75;1.23;;;16.60;78.70;;;;;;5071553;28;20033;-68
2021/05/15 08:22:45;;;;;;;3.03;1.08;;;16.60;78.20;;;;;;5072328;28;20029;-67
2021/05/15 08:25:13;;;;;;;4.20;1.23;;;16.60;77.60;;;;;;5071811;28;20461;-73
2021/05/15 08:27:40;;;;;;;4.25;1.20;;;16.70;76.70;;;;;;5072396;28;20028;-74
2021/05/15 08:30:09;;;;;;;4.35;1.58;;;16.80;77.40;;;;;;5075684;28;20056;-73
2021/05/15 08:32:35;;;;;;;5.95;1.50;;;16.80;77.70;;;;;;5075390;28;21179;-74
2021/05/15 08:35:01;;;;;;;4.15;1.00;;;16.90;78.20;;;;;;5074837;28;20021;-73
2021/05/15 08:37:27;;;;;;;9.60;1.40;;;16.90;76.80;;;;;;5076405;28;20046;-72
2021/05/15 08:39:53;;;;;;;3.03;1.00;;;17.00;76.00;;;;;;5074446;28;20033;-74
2021/05/15 08:42:20;;;;;;;6.85;1.20;;;17.10;75.50;;;;;;5075470;28;20024;-72
2021/05/15 08:44:48;;;;;;;4.55;1.20;;;17.10;74.20;;;;;;5075870;28;20032;-72
2021/05/15 08:47:18;;;;;;;10.73;1.15;;;17.20;74.10;;;;;;5076088;28;20081;-73
2021/05/15 08:49:45;;;;;;;5.03;1.23;;;17.40;74.00;;;;;;5075759;28;20127;-73
2021/05/15 08:52:12;;;;;;;2.47;1.10;;;17.50;73.60;;;;;;5075806;28;20012;-71
2021/05/15 08:54:38;;;;;;;3.00;1.15;;;17.60;73.50;;;;;;5076156;28;20526;-73
2021/05/15 08:57:04;;;;;;;6.20;1.08;;;17.60;72.90;;;;;;5075861;28;20028;-74
2021/05/15 08:59:30;;;;;;;5.78;1.50;;;17.60;70.70;;;;;;5075586;28;20043;-73
2021/05/15 09:01:56;;;;;;;7.18;1.35;;;17.70;72.00;;;;;;5076321;28;20025;-74
2021/05/15 09:04:23;;;;;;;3.97;1.25;;;17.70;72.40;;;;;;5075609;28;20447;-73
2021/05/15 09:06:49;;;;;;;5.00;1.20;;;17.70;72.20;;;;;;5075409;28;20027;-67
2021/05/15 09:09:15;;;;;;;4.68;1.15;;;17.80;73.20;;;;;;5074981;28;20111;-68
2021/05/15 09:11:40;;;;;;;3.85;1.10;;;17.90;72.00;;;;;;5075303;28;20450;-67
2021/05/15 09:14:15;;;;;;;4.25;1.10;;;18.00;71.20;;;;;;5074385;28;20533;-68
2021/05/15 09:16:51;;;;;;;7.05;1.25;;;18.10;71.00;;;;;;5074521;28;20145;-67
2021/05/15 09:19:28;;;;;;;7.97;1.17;;;18.20;70.70;;;;;;5074590;28;20396;-70
2021/05/15 09:22:06;;;;;;;2.40;1.00;;;18.20;69.60;;;;;;5073800;28;20028;-66
2021/05/15 09:24:34;;;;;;;6.95;1.20;;;18.30;67.60;;;;;;5073643;28;20064;-67
2021/05/15 09:27:05;;;;;;;2.97;0.98;;;18.20;67.60;;;;;;5073456;28;20052;-68
2021/05/15 09:29:41;;;;;;;6.10;1.30;;;18.20;68.50;;;;;;5074163;28;20053;-68
2021/05/15 09:32:06;;;;;;;4.82;0.90;;;18.30;69.30;;;;;;5074359;28;20115;-68
2021/05/15 09:34:43;;;;;;;5.50;1.52;;;18.50;67.00;;;;;;5074364;28;20109;-68
2021/05/15 09:37:08;;;;;;;5.53;1.08;;;18.60;66.50;;;;;;5074569;28;20515;-68
2021/05/15 09:39:34;;;;;;;6.20;1.30;;;18.70;65.40;;;;;;5072606;28;20056;-68
2021/05/15 09:42:01;;;;;;;4.47;1.15;;;18.80;65.80;;;;;;5083228;28;20020;-68
2021/05/15 09:44:34;;;;;;;6.15;1.15;;;18.90;63.70;;;;;;5094427;28;20044;-67
2021/05/15 09:47:00;;;;;;;4.53;0.98;;;19.10;64.60;;;;;;5093137;28;20016;-68
2021/05/15 09:49:28;;;;;;;2.88;1.10;;;19.20;66.10;;;;;;5093504;28;20069;-68
2021/05/15 09:52:06;;;;;;;4.55;0.85;;;19.20;65.30;;;;;;5094951;28;20048;-68
2021/05/15 09:54:34;;;;;;;3.42;1.00;;;19.30;66.00;;;;;;5094777;28;20036;-68
2021/05/15 09:57:04;;;;;;;5.32;1.20;;;19.50;66.50;;;;;;5094841;28;20016;-68
2021/05/15 09:59:30;;;;;;;5.05;1.15;;;19.60;67.50;;;;;;5094831;28;20032;-68
2021/05/15 10:01:58;;;;;;;1.80;0.80;;;19.70;66.00;;;;;;5094597;28;20154;-72
2021/05/15 10:04:25;;;;;;;3.53;1.10;;;19.70;63.60;;;;;;5094398;28;20047;-68
2021/05/15 10:06:51;;;;;;;2.50;1.02;;;19.60;63.70;;;;;;5094676;28;20468;-71
2021/05/15 10:09:36;;;;;;;4.18;1.17;;;19.50;64.30;;;;;;5091270;28;20036;-71
2021/05/15 10:12:04;;;;;;;4.80;1.10;;;19.40;63.30;;;;;;5091675;28;20484;-70
2021/05/15 10:14:31;;;;;;;3.65;1.38;;;19.20;63.50;;;;;;5093051;28;20041;-69
2021/05/15 10:16:57;;;;;;;4.13;1.10;;;19.10;65.30;;;;;;5094317;28;20054;-69
2021/05/15 10:19:24;;;;;;;6.35;1.30;;;18.90;65.20;;;;;;5094351;28;20027;-68
2021/05/15 10:21:50;;;;;;;3.92;1.08;;;18.80;66.30;;;;;;5094278;28;20078;-69
2021/05/15 10:24:37;;;;;;;4.07;1.05;;;18.70;66.70;;;;;;5093802;28;20028;-69
2021/05/15 10:27:07;;;;;;;5.40;1.20;;;18.60;67.90;;;;;;5094220;28;20028;-69
2021/05/15 10:29:42;;;;;;;5.38;1.25;;;18.60;68.40;;;;;;5093721;28;20028;-69
2021/05/15 10:32:22;;;;;;;3.20;1.10;;;18.50;68.60;;;;;;5093793;28;20038;-70
2021/05/15 10:35:06;;;;;;;5.82;0.95;;;18.50;69.30;;;;;;5093987;28;20028;-69
2021/05/15 10:37:38;;;;;;;4.25;1.23;;;18.40;68.40;;;;;;5094113;28;20074;-70
2021/05/15 10:40:18;;;;;;;5.57;1.10;;;18.40;68.50;;;;;;5094152;28;20011;-70
2021/05/15 10:42:44;;;;;;;3.92;1.27;;;18.50;69.00;;;;;;5093751;28;20284;-69
2021/05/15 10:45:11;;;;;;;2.58;1.00;;;18.50;68.40;;;;;;5093767;28;20028;-69
2021/05/15 10:47:43;;;;;;;4.13;1.02;;;18.60;69.50;;;;;;5093756;28;20533;-69
2021/05/15 10:50:16;;;;;;;;;;;18.60;68.10;;;;;;5094103;28;20479;-69
2021/05/15 10:52:49;;;;;;;;;;;18.50;66.70;;;;;;5092653;28;19916;-68
2021/05/15 10:55:32;;;;;;;5.63;1.08;;;18.50;67.00;;;;;;5091179;28;20007;-69
2021/05/15 10:58:12;;;;;;;8.43;1.10;;;18.40;69.70;;;;;;5092205;28;20020;-68
2021/05/15 11:00:38;;;;;;;5.72;0.85;;;18.30;70.10;;;;;;5093773;28;20408;-68
2021/05/15 11:03:04;;;;;;;4.32;1.02;;;18.20;71.20;;;;;;5093844;28;20035;-68
2021/05/15 11:05:44;;;;;;;6.05;1.10;;;18.20;71.70;;;;;;5093754;28;20031;-69
2021/05/15 11:08:25;;;;;;;3.80;1.20;;;18.10;71.20;;;;;;5093354;28;20020;-69
2021/05/15 11:10:52;;;;;;;4.27;0.97;;;18.10;70.10;;;;;;5093586;28;20032;-69
2021/05/15 11:13:18;;;;;;;6.63;1.23;;;18.10;72.10;;;;;;5093621;28;20028;-69
2021/05/15 11:15:44;;;;;;;5.50;1.30;;;18.20;72.30;;;;;;5093704;28;20027;-69
2021/05/15 11:18:09;;;;;;;4.90;0.90;;;18.30;71.00;;;;;;5093453;28;20103;-68
2021/05/15 11:20:47;;;;;;;2.63;0.82;;;18.50;70.30;;;;;;5093578;28;20016;-68
2021/05/15 11:23:16;;;;;;;6.78;1.13;;;18.60;69.40;;;;;;5093120;28;20044;-68
2021/05/15 11:25:56;;;;;;;4.20;1.20;;;18.60;65.50;;;;;;5093331;28;20468;-68
2021/05/15 11:28:24;;;;;;;4.53;1.10;;;18.50;65.90;;;;;;5093400;28;20024;-68
2021/05/15 11:30:50;;;;;;;3.85;0.88;;;18.40;66.80;;;;;;5093419;28;20058;-68
2021/05/15 11:33:22;;;;;;;4.50;1.13;;;18.50;67.60;;;;;;5093516;28;20032;-69
2021/05/15 11:35:52;;;;;;;6.93;1.20;;;18.40;68.80;;;;;;5093365;28;20460;-69
2021/05/15 11:38:20;;;;;;;3.47;1.02;;;18.30;69.00;;;;;;5109236;28;20411;-68
2021/05/15 11:40:46;;;;;;;4.63;1.35;;;18.20;68.60;;;;;;5093166;28;20435;-68
2021/05/15 11:43:20;;;;;;;8.10;1.10;;;18.20;68.50;;;;;;5093042;28;20123;-68
2021/05/15 11:45:46;;;;;;;6.65;1.40;;;18.20;68.40;;;;;;5093213;28;20073;-69
2021/05/15 11:48:20;;;;;;;4.95;1.15;;;18.20;68.00;;;;;;5093263;28;20384;-69
2021/05/15 11:51:00;;;;;;;4.07;1.17;;;18.30;69.30;;;;;;5093359;28;20016;-69
2021/05/15 11:53:28;;;;;;;2.75;0.82;;;18.40;69.30;;;;;;5093001;28;20028;-68
2021/05/15 11:55:54;;;;;;;5.63;1.15;;;18.60;68.10;;;;;;5092131;28;20035;-68
2021/05/15 11:58:20;;;;;;;4.03;1.10;;;18.90;67.50;;;;;;5092803;28;20472;-69
2021/05/15 12:00:47;;;;;;;6.55;1.50;;;19.10;66.60;;;;;;5092816;28;20091;-68
2021/05/15 12:03:19;;;;;;;5.10;1.27;;;19.20;67.60;;;;;;5090113;28;20033;-68
2021/05/15 12:05:45;;;;;;;5.82;1.42;;;19.30;66.00;;;;;;5093397;28;20031;-68
2021/05/15 12:08:12;;;;;;;2.08;0.88;;;19.40;66.90;;;;;;5093419;28;20020;-69
2021/05/15 12:10:39;;;;;;;2.05;0.65;;;19.50;63.50;;;;;;5093336;28;20036;-69
2021/05/15 12:13:05;;;;;;;2.55;0.88;;;19.50;64.70;;;;;;5094684;28;20533;-68
2021/05/15 12:15:32;;;;;;;3.53;0.90;;;19.80;62.10;;;;;;5096040;28;20066;-69
2021/05/15 12:18:00;;;;;;;5.15;0.90;;;20.00;59.80;;;;;;5096463;28;20040;-70
2021/05/15 12:20:26;;;;;;;3.72;0.70;;;20.20;61.80;;;;;;5096194;28;20031;-69
2021/05/15 12:23:06;;;;;;;2.55;0.80;;;20.30;58.80;;;;;;5092984;28;20036;-69
2021/05/15 12:25:33;;;;;;;1.92;0.60;;;20.40;58.10;;;;;;5093045;28;20089;-69
2021/05/15 12:27:58;;;;;;;2.35;0.60;;;20.50;58.90;;;;;;5095544;28;20048;-69
2021/05/15 12:30:27;;;;;;;3.10;1.30;;;20.60;55.20;;;;;;5095994;28;20059;-72
2021/05/15 12:33:04;;;;;;;2.67;1.10;;;20.50;56.70;;;;;;5093458;28;20024;-69
2021/05/15 12:35:32;;;;;;;1.52;0.55;;;20.50;55.20;;;;;;5094769;28;20024;-70
2021/05/15 12:37:58;;;;;;;3.83;0.80;;;20.40;56.80;;;;;;5095461;28;20024;-69
2021/05/15 12:40:31;;;;;;;1.33;0.70;;;20.30;57.90;;;;;;5096436;28;20081;-69
2021/05/15 12:43:13;;;;;;;1.83;0.65;;;20.20;57.70;;;;;;5096739;28;20020;-69
2021/05/15 12:45:40;;;;;;;3.10;0.73;;;20.10;56.30;;;;;;5096510;28;20024;-69
2021/05/15 12:48:41;;;;;;;3.53;0.90;;;20.00;59.00;;;;;;5096270;28;20480;-69
2021/05/15 12:51:13;;;;;;;2.50;0.60;;;20.20;60.40;;;;;;5096407;28;20510;-69
2021/05/15 12:53:40;;;;;;;2.87;0.77;;;20.30;59.00;;;;;;5096481;28;20020;-69